sensor_id;sensor_type;location;lat;lon;timestamp;pressure;altitude;pressure_sealevel;temperature
11792;BMP180;5953;52.372;9.918;2023-04-30T00:01:44;101493.00;;;13.40
11792;BMP180;5953;52.372;9.918;2023-04-30T00:04:12;101482.00;;;13.30
11792;BMP180;5953;52.372;9.918;2023-04-30T00:06:40;101494.00;;;13.40
11792;BMP180;5953;52.372;9.918;2023-04-30T00:09:07;101502.00;;;13.30
11792;BMP180;5953;52.372;9.918;2023-04-30T00:11:37;101494.00;;;13.40
11792;BMP180;5953;52.372;9.918;2023-04-30T00:14:04;101496.00;;;13.40
11792;BMP180;5953;52.372;9.918;2023-04-30T00:16:32;101495.00;;;13.40
11792;BMP180;5953;52.372;9.918;2023-04-30T00:19:00;101486.00;;;13.40
11792;BMP180;5953;52.372;9.918;2023-04-30T00:21:28;101464.00;;;13.40
11792;BMP180;5953;52.372;9.918;2023-04-30T00:23:56;101498.00;;;13.40
11792;BMP180;5953;52.372;9.918;2023-04-30T00:26:25;101505.00;;;13.30
11792;BMP180;5953;52.372;9.918;2023-04-30T00:28:55;101502.00;;;13.30
11792;BMP180;5953;52.372;9.918;2023-04-30T00:31:22;101509.00;;;13.40
11792;BMP180;5953;52.372;9.918;2023-04-30T00:33:50;101508.00;;;13.30
11792;BMP180;5953;52.372;9.918;2023-04-30T00:36:18;101511.00;;;13.30
11792;BMP180;5953;52.372;9.918;2023-04-30T00:38:46;101506.00;;;13.30
11792;BMP180;5953;52.372;9.918;2023-04-30T00:41:13;101507.00;;;13.30
11792;BMP180;5953;52.372;9.918;2023-04-30T00:43:42;101513.00;;;13.20
11792;BMP180;5953;52.372;9.918;2023-04-30T00:46:11;101505.00;;;13.20
11792;BMP180;5953;52.372;9.918;2023-04-30T00:48:39;101496.00;;;13.30
11792;BMP180;5953;52.372;9.918;2023-04-30T00:51:07;101522.00;;;13.20
11792;BMP180;5953;52.372;9.918;2023-04-30T00:53:35;101508.00;;;13.20
11792;BMP180;5953;52.372;9.918;2023-04-30T00:56:04;101520.00;;;13.10
11792;BMP180;5953;52.372;9.918;2023-04-30T00:58:32;101515.00;;;13.00
11792;BMP180;5953;52.372;9.918;2023-04-30T01:01:01;101516.00;;;13.00
11792;BMP180;5953;52.372;9.918;2023-04-30T01:03:31;101516.00;;;13.10
11792;BMP180;5953;52.372;9.918;2023-04-30T01:06:01;101529.00;;;13.10
11792;BMP180;5953;52.372;9.918;2023-04-30T01:08:29;101526.00;;;13.00
11792;BMP180;5953;52.372;9.918;2023-04-30T01:11:09;101524.00;;;13.00
11792;BMP180;5953;52.372;9.918;2023-04-30T01:13:44;101524.00;;;13.00
11792;BMP180;5953;52.372;9.918;2023-04-30T01:16:19;101530.00;;;13.00
11792;BMP180;5953;52.372;9.918;2023-04-30T01:18:55;101532.00;;;12.90
11792;BMP180;5953;52.372;9.918;2023-04-30T01:21:25;101543.00;;;12.80
11792;BMP180;5953;52.372;9.918;2023-04-30T01:24:19;101530.00;;;12.80
11792;BMP180;5953;52.372;9.918;2023-04-30T01:27:05;101537.00;;;12.70
11792;BMP180;5953;52.372;9.918;2023-04-30T01:29:38;101548.00;;;12.70
11792;BMP180;5953;52.372;9.918;2023-04-30T01:32:06;101521.00;;;12.70
11792;BMP180;5953;52.372;9.918;2023-04-30T01:34:34;101543.00;;;12.70
11792;BMP180;5953;52.372;9.918;2023-04-30T01:37:10;101544.00;;;12.30
11792;BMP180;5953;52.372;9.918;2023-04-30T01:39:53;101534.00;;;11.90
11792;BMP180;5953;52.372;9.918;2023-04-30T01:42:29;101544.00;;;11.70
11792;BMP180;5953;52.372;9.918;2023-04-30T01:45:21;101539.00;;;11.50
11792;BMP180;5953;52.372;9.918;2023-04-30T01:47:54;101517.00;;;12.00
11792;BMP180;5953;52.372;9.918;2023-04-30T01:50:28;101546.00;;;12.00
11792;BMP180;5953;52.372;9.918;2023-04-30T01:53:02;101533.00;;;12.10
11792;BMP180;5953;52.372;9.918;2023-04-30T01:55:35;101546.00;;;12.10
11792;BMP180;5953;52.372;9.918;2023-04-30T01:58:05;101555.00;;;12.20
11792;BMP180;5953;52.372;9.918;2023-04-30T02:00:35;101551.00;;;12.20
11792;BMP180;5953;52.372;9.918;2023-04-30T02:03:03;101563.00;;;12.20
11792;BMP180;5953;52.372;9.918;2023-04-30T02:05:31;101560.00;;;12.20
11792;BMP180;5953;52.372;9.918;2023-04-30T02:07:59;101559.00;;;12.20
11792;BMP180;5953;52.372;9.918;2023-04-30T02:10:28;101558.00;;;12.30
11792;BMP180;5953;52.372;9.918;2023-04-30T02:12:56;101556.00;;;12.20
11792;BMP180;5953;52.372;9.918;2023-04-30T02:15:24;101561.00;;;12.10
11792;BMP180;5953;52.372;9.918;2023-04-30T02:17:53;101571.00;;;12.10
11792;BMP180;5953;52.372;9.918;2023-04-30T02:20:21;101565.00;;;12.10
11792;BMP180;5953;52.372;9.918;2023-04-30T02:22:49;101552.00;;;12.00
11792;BMP180;5953;52.372;9.918;2023-04-30T02:25:17;101553.00;;;12.00
11792;BMP180;5953;52.372;9.918;2023-04-30T02:27:45;101566.00;;;12.00
11792;BMP180;5953;52.372;9.918;2023-04-30T02:30:13;101544.00;;;11.90
11792;BMP180;5953;52.372;9.918;2023-04-30T02:32:41;101556.00;;;11.90
11792;BMP180;5953;52.372;9.918;2023-04-30T02:35:10;101567.00;;;11.70
11792;BMP180;5953;52.372;9.918;2023-04-30T02:37:38;101560.00;;;11.70
11792;BMP180;5953;52.372;9.918;2023-04-30T02:40:07;101556.00;;;11.80
11792;BMP180;5953;52.372;9.918;2023-04-30T02:42:35;101564.00;;;11.80
11792;BMP180;5953;52.372;9.918;2023-04-30T02:45:03;101555.00;;;11.80
11792;BMP180;5953;52.372;9.918;2023-04-30T02:47:31;101559.00;;;11.60
11792;BMP180;5953;52.372;9.918;2023-04-30T02:49:59;101562.00;;;11.50
11792;BMP180;5953;52.372;9.918;2023-04-30T02:52:28;101558.00;;;11.60
11792;BMP180;5953;52.372;9.918;2023-04-30T02:54:56;101562.00;;;11.50
11792;BMP180;5953;52.372;9.918;2023-04-30T02:57:24;101558.00;;;11.50
11792;BMP180;5953;52.372;9.918;2023-04-30T02:59:51;101568.00;;;11.50
11792;BMP180;5953;52.372;9.918;2023-04-30T03:02:19;101573.00;;;11.50
11792;BMP180;5953;52.372;9.918;2023-04-30T03:04:49;101577.00;;;11.40
11792;BMP180;5953;52.372;9.918;2023-04-30T03:07:17;101578.00;;;11.40
11792;BMP180;5953;52.372;9.918;2023-04-30T03:09:46;101580.00;;;11.40
11792;BMP180;5953;52.372;9.918;2023-04-30T03:12:14;101584.00;;;11.30
11792;BMP180;5953;52.372;9.918;2023-04-30T03:14:42;101573.00;;;11.30
11792;BMP180;5953;52.372;9.918;2023-04-30T03:17:09;101578.00;;;11.20
11792;BMP180;5953;52.372;9.918;2023-04-30T03:19:37;101584.00;;;11.20
11792;BMP180;5953;52.372;9.918;2023-04-30T03:22:05;101579.00;;;11.20
11792;BMP180;5953;52.372;9.918;2023-04-30T03:24:33;101549.00;;;11.10
11792;BMP180;5953;52.372;9.918;2023-04-30T03:27:02;101587.00;;;11.10
11792;BMP180;5953;52.372;9.918;2023-04-30T03:29:30;101590.00;;;11.00
11792;BMP180;5953;52.372;9.918;2023-04-30T03:31:57;101582.00;;;11.00
11792;BMP180;5953;52.372;9.918;2023-04-30T03:34:25;101586.00;;;11.00
11792;BMP180;5953;52.372;9.918;2023-04-30T03:36:53;101581.00;;;11.00
11792;BMP180;5953;52.372;9.918;2023-04-30T03:39:21;101586.00;;;10.90
11792;BMP180;5953;52.372;9.918;2023-04-30T03:41:49;101562.00;;;10.80
11792;BMP180;5953;52.372;9.918;2023-04-30T03:44:18;101575.00;;;10.70
11792;BMP180;5953;52.372;9.918;2023-04-30T03:46:46;101592.00;;;10.70
11792;BMP180;5953;52.372;9.918;2023-04-30T03:49:14;101590.00;;;10.50
11792;BMP180;5953;52.372;9.918;2023-04-30T03:51:42;101599.00;;;10.30
11792;BMP180;5953;52.372;9.918;2023-04-30T03:54:09;101604.00;;;10.20
11792;BMP180;5953;52.372;9.918;2023-04-30T03:56:37;101602.00;;;10.20
11792;BMP180;5953;52.372;9.918;2023-04-30T03:59:06;101592.00;;;10.30
11792;BMP180;5953;52.372;9.918;2023-04-30T04:01:36;101601.00;;;10.10
11792;BMP180;5953;52.372;9.918;2023-04-30T04:04:04;101609.00;;;10.10
11792;BMP180;5953;52.372;9.918;2023-04-30T04:06:32;101609.00;;;10.20
11792;BMP180;5953;52.372;9.918;2023-04-30T04:08:59;101612.00;;;10.20
11792;BMP180;5953;52.372;9.918;2023-04-30T04:11:27;101622.00;;;9.90
11792;BMP180;5953;52.372;9.918;2023-04-30T04:13:55;101624.00;;;10.00
11792;BMP180;5953;52.372;9.918;2023-04-30T04:16:23;101627.00;;;10.10
11792;BMP180;5953;52.372;9.918;2023-04-30T04:18:52;101623.00;;;10.00
11792;BMP180;5953;52.372;9.918;2023-04-30T04:21:20;101629.00;;;10.00
11792;BMP180;5953;52.372;9.918;2023-04-30T04:23:48;101634.00;;;10.20
11792;BMP180;5953;52.372;9.918;2023-04-30T04:26:16;101631.00;;;10.10
11792;BMP180;5953;52.372;9.918;2023-04-30T04:28:45;101625.00;;;9.80
11792;BMP180;5953;52.372;9.918;2023-04-30T04:31:13;101627.00;;;10.00
11792;BMP180;5953;52.372;9.918;2023-04-30T04:33:42;101631.00;;;10.10
11792;BMP180;5953;52.372;9.918;2023-04-30T04:36:11;101635.00;;;10.20
11792;BMP180;5953;52.372;9.918;2023-04-30T04:38:38;101605.00;;;10.30
11792;BMP180;5953;52.372;9.918;2023-04-30T04:41:07;101627.00;;;10.20
11792;BMP180;5953;52.372;9.918;2023-04-30T04:43:35;101638.00;;;10.10
11792;BMP180;5953;52.372;9.918;2023-04-30T04:46:03;101637.00;;;10.20
11792;BMP180;5953;52.372;9.918;2023-04-30T04:48:30;101643.00;;;10.40
11792;BMP180;5953;52.372;9.918;2023-04-30T04:50:58;101642.00;;;10.40
11792;BMP180;5953;52.372;9.918;2023-04-30T04:53:27;101646.00;;;10.40
11792;BMP180;5953;52.372;9.918;2023-04-30T04:55:55;101662.00;;;10.60
11792;BMP180;5953;52.372;9.918;2023-04-30T04:58:23;101651.00;;;10.50
11792;BMP180;5953;52.372;9.918;2023-04-30T05:00:50;101653.00;;;10.70
11792;BMP180;5953;52.372;9.918;2023-04-30T05:03:18;101662.00;;;10.90
11792;BMP180;5953;52.372;9.918;2023-04-30T05:05:47;101649.00;;;11.10
11792;BMP180;5953;52.372;9.918;2023-04-30T05:08:15;101657.00;;;11.10
11792;BMP180;5953;52.372;9.918;2023-04-30T05:10:44;101654.00;;;11.30
11792;BMP180;5953;52.372;9.918;2023-04-30T05:13:12;101658.00;;;11.40
11792;BMP180;5953;52.372;9.918;2023-04-30T05:15:40;101653.00;;;11.50
11792;BMP180;5953;52.372;9.918;2023-04-30T05:18:07;101660.00;;;11.80
11792;BMP180;5953;52.372;9.918;2023-04-30T05:20:35;101663.00;;;12.10
11792;BMP180;5953;52.372;9.918;2023-04-30T05:23:03;101664.00;;;12.30
11792;BMP180;5953;52.372;9.918;2023-04-30T05:25:31;101670.00;;;12.50
11792;BMP180;5953;52.372;9.918;2023-04-30T05:28:00;101670.00;;;12.70
11792;BMP180;5953;52.372;9.918;2023-04-30T05:30:28;101664.00;;;13.00
11792;BMP180;5953;52.372;9.918;2023-04-30T05:32:56;101668.00;;;13.20
11792;BMP180;5953;52.372;9.918;2023-04-30T05:35:24;101667.00;;;13.40
11792;BMP180;5953;52.372;9.918;2023-04-30T05:37:52;101680.00;;;13.70
11792;BMP180;5953;52.372;9.918;2023-04-30T05:40:19;101677.00;;;14.00
11792;BMP180;5953;52.372;9.918;2023-04-30T05:42:47;101645.00;;;14.40
11792;BMP180;5953;52.372;9.918;2023-04-30T05:45:17;101671.00;;;14.30
11792;BMP180;5953;52.372;9.918;2023-04-30T05:47:44;101677.00;;;14.50
11792;BMP180;5953;52.372;9.918;2023-04-30T05:50:12;101675.00;;;14.60
11792;BMP180;5953;52.372;9.918;2023-04-30T05:52:40;101683.00;;;14.60
11792;BMP180;5953;52.372;9.918;2023-04-30T05:55:08;101659.00;;;14.90
11792;BMP180;5953;52.372;9.918;2023-04-30T05:57:37;101680.00;;;15.10
11792;BMP180;5953;52.372;9.918;2023-04-30T06:00:05;101677.00;;;15.30
11792;BMP180;5953;52.372;9.918;2023-04-30T06:02:35;101685.00;;;15.50
11792;BMP180;5953;52.372;9.918;2023-04-30T06:05:03;101685.00;;;15.70
11792;BMP180;5953;52.372;9.918;2023-04-30T06:07:31;101690.00;;;15.70
11792;BMP180;5953;52.372;9.918;2023-04-30T06:09:59;101691.00;;;16.00
11792;BMP180;5953;52.372;9.918;2023-04-30T06:12:27;101691.00;;;15.90
11792;BMP180;5953;52.372;9.918;2023-04-30T06:14:55;101692.00;;;15.90
11792;BMP180;5953;52.372;9.918;2023-04-30T06:17:22;101682.00;;;15.90
11792;BMP180;5953;52.372;9.918;2023-04-30T06:19:52;101687.00;;;15.90
11792;BMP180;5953;52.372;9.918;2023-04-30T06:22:21;101685.00;;;15.60
11792;BMP180;5953;52.372;9.918;2023-04-30T06:24:49;101674.00;;;15.70
11792;BMP180;5953;52.372;9.918;2023-04-30T06:27:16;101695.00;;;15.50
11792;BMP180;5953;52.372;9.918;2023-04-30T06:29:44;101700.00;;;15.70
11792;BMP180;5953;52.372;9.918;2023-04-30T06:32:12;101705.00;;;15.90
11792;BMP180;5953;52.372;9.918;2023-04-30T06:34:40;101692.00;;;15.90
11792;BMP180;5953;52.372;9.918;2023-04-30T06:37:09;101694.00;;;15.70
11792;BMP180;5953;52.372;9.918;2023-04-30T06:39:36;101701.00;;;15.80
11792;BMP180;5953;52.372;9.918;2023-04-30T06:42:04;101701.00;;;15.70
11792;BMP180;5953;52.372;9.918;2023-04-30T06:44:32;101692.00;;;15.60
11792;BMP180;5953;52.372;9.918;2023-04-30T06:46:59;101690.00;;;15.80
11792;BMP180;5953;52.372;9.918;2023-04-30T06:49:28;101699.00;;;15.80
11792;BMP180;5953;52.372;9.918;2023-04-30T06:51:55;101689.00;;;15.60
11792;BMP180;5953;52.372;9.918;2023-04-30T06:54:25;101695.00;;;15.70
11792;BMP180;5953;52.372;9.918;2023-04-30T06:56:53;101691.00;;;15.90
11792;BMP180;5953;52.372;9.918;2023-04-30T06:59:20;101691.00;;;15.90
11792;BMP180;5953;52.372;9.918;2023-04-30T07:01:48;101700.00;;;15.90
11792;BMP180;5953;52.372;9.918;2023-04-30T07:04:16;101685.00;;;16.00
11792;BMP180;5953;52.372;9.918;2023-04-30T07:06:45;101690.00;;;15.90
11792;BMP180;5953;52.372;9.918;2023-04-30T07:09:13;101694.00;;;16.00
11792;BMP180;5953;52.372;9.918;2023-04-30T07:11:43;101700.00;;;16.10
11792;BMP180;5953;52.372;9.918;2023-04-30T07:14:10;101696.00;;;16.00
11792;BMP180;5953;52.372;9.918;2023-04-30T07:16:38;101700.00;;;16.20
11792;BMP180;5953;52.372;9.918;2023-04-30T07:19:06;101701.00;;;16.50
11792;BMP180;5953;52.372;9.918;2023-04-30T07:21:34;101709.00;;;16.60
11792;BMP180;5953;52.372;9.918;2023-04-30T07:24:03;101720.00;;;16.90
11792;BMP180;5953;52.372;9.918;2023-04-30T07:26:31;101716.00;;;16.50
11792;BMP180;5953;52.372;9.918;2023-04-30T07:29:00;101687.00;;;16.30
11792;BMP180;5953;52.372;9.918;2023-04-30T07:31:29;101716.00;;;16.20
11792;BMP180;5953;52.372;9.918;2023-04-30T07:33:57;101724.00;;;16.40
11792;BMP180;5953;52.372;9.918;2023-04-30T07:36:25;101729.00;;;16.10
11792;BMP180;5953;52.372;9.918;2023-04-30T07:38:53;101725.00;;;15.90
11792;BMP180;5953;52.372;9.918;2023-04-30T07:41:22;101714.00;;;15.90
11792;BMP180;5953;52.372;9.918;2023-04-30T07:43:50;101723.00;;;16.00
11792;BMP180;5953;52.372;9.918;2023-04-30T07:46:20;101717.00;;;16.00
11792;BMP180;5953;52.372;9.918;2023-04-30T07:48:47;101724.00;;;15.90
11792;BMP180;5953;52.372;9.918;2023-04-30T07:51:15;101714.00;;;16.00
11792;BMP180;5953;52.372;9.918;2023-04-30T07:53:44;101712.00;;;15.90
11792;BMP180;5953;52.372;9.918;2023-04-30T07:56:12;101716.00;;;16.10
11792;BMP180;5953;52.372;9.918;2023-04-30T07:58:40;101715.00;;;16.20
11792;BMP180;5953;52.372;9.918;2023-04-30T08:01:08;101718.00;;;16.40
11792;BMP180;5953;52.372;9.918;2023-04-30T08:03:37;101710.00;;;16.60
11792;BMP180;5953;52.372;9.918;2023-04-30T08:06:05;101704.00;;;16.80
11792;BMP180;5953;52.372;9.918;2023-04-30T08:08:33;101716.00;;;16.80
11792;BMP180;5953;52.372;9.918;2023-04-30T08:11:01;101715.00;;;17.20
11792;BMP180;5953;52.372;9.918;2023-04-30T08:13:29;101720.00;;;17.10
11792;BMP180;5953;52.372;9.918;2023-04-30T08:15:57;101728.00;;;16.70
11792;BMP180;5953;52.372;9.918;2023-04-30T08:18:25;101723.00;;;17.00
11792;BMP180;5953;52.372;9.918;2023-04-30T08:20:54;101724.00;;;16.90
11792;BMP180;5953;52.372;9.918;2023-04-30T08:23:22;101723.00;;;17.00
11792;BMP180;5953;52.372;9.918;2023-04-30T08:25:49;101717.00;;;16.80
11792;BMP180;5953;52.372;9.918;2023-04-30T08:28:18;101719.00;;;16.80
11792;BMP180;5953;52.372;9.918;2023-04-30T08:30:45;101716.00;;;17.10
11792;BMP180;5953;52.372;9.918;2023-04-30T08:33:13;101709.00;;;17.10
11792;BMP180;5953;52.372;9.918;2023-04-30T08:35:41;101722.00;;;17.30
11792;BMP180;5953;52.372;9.918;2023-04-30T08:38:10;101717.00;;;17.90
11792;BMP180;5953;52.372;9.918;2023-04-30T08:40:38;101708.00;;;17.90
11792;BMP180;5953;52.372;9.918;2023-04-30T08:43:11;101705.00;;;17.30
11792;BMP180;5953;52.372;9.918;2023-04-30T08:45:38;101709.00;;;17.90
11792;BMP180;5953;52.372;9.918;2023-04-30T08:48:09;101714.00;;;17.20
11792;BMP180;5953;52.372;9.918;2023-04-30T08:50:39;101702.00;;;17.20
11792;BMP180;5953;52.372;9.918;2023-04-30T08:53:08;101691.00;;;17.80
11792;BMP180;5953;52.372;9.918;2023-04-30T08:55:39;101705.00;;;17.90
11792;BMP180;5953;52.372;9.918;2023-04-30T08:58:07;101697.00;;;18.00
11792;BMP180;5953;52.372;9.918;2023-04-30T09:00:37;101701.00;;;16.30
11792;BMP180;5953;52.372;9.918;2023-04-30T09:03:05;101692.00;;;17.20
11792;BMP180;5953;52.372;9.918;2023-04-30T09:05:35;101697.00;;;17.60
11792;BMP180;5953;52.372;9.918;2023-04-30T09:08:03;101697.00;;;17.20
11792;BMP180;5953;52.372;9.918;2023-04-30T09:10:32;101695.00;;;17.80
11792;BMP180;5953;52.372;9.918;2023-04-30T09:13:06;101696.00;;;17.80
11792;BMP180;5953;52.372;9.918;2023-04-30T09:15:36;101689.00;;;17.80
11792;BMP180;5953;52.372;9.918;2023-04-30T09:18:08;101703.00;;;17.30
11792;BMP180;5953;52.372;9.918;2023-04-30T09:20:37;101691.00;;;17.00
11792;BMP180;5953;52.372;9.918;2023-04-30T09:23:19;101695.00;;;17.60
11792;BMP180;5953;52.372;9.918;2023-04-30T09:25:47;101696.00;;;17.30
11792;BMP180;5953;52.372;9.918;2023-04-30T09:28:17;101698.00;;;17.90
11792;BMP180;5953;52.372;9.918;2023-04-30T09:30:49;101691.00;;;17.60
11792;BMP180;5953;52.372;9.918;2023-04-30T09:33:18;101708.00;;;17.80
11792;BMP180;5953;52.372;9.918;2023-04-30T09:35:46;101686.00;;;18.20
11792;BMP180;5953;52.372;9.918;2023-04-30T09:38:28;101703.00;;;18.40
11792;BMP180;5953;52.372;9.918;2023-04-30T09:40:57;101696.00;;;18.30
11792;BMP180;5953;52.372;9.918;2023-04-30T09:43:27;101685.00;;;18.60
11792;BMP180;5953;52.372;9.918;2023-04-30T09:45:57;101698.00;;;18.60
11792;BMP180;5953;52.372;9.918;2023-04-30T09:48:25;101679.00;;;18.80
11792;BMP180;5953;52.372;9.918;2023-04-30T09:50:54;101678.00;;;18.50
11792;BMP180;5953;52.372;9.918;2023-04-30T09:53:22;101677.00;;;18.70
11792;BMP180;5953;52.372;9.918;2023-04-30T09:55:50;101684.00;;;18.70
11792;BMP180;5953;52.372;9.918;2023-04-30T09:58:22;101677.00;;;19.20
11792;BMP180;5953;52.372;9.918;2023-04-30T10:00:57;101680.00;;;19.00
11792;BMP180;5953;52.372;9.918;2023-04-30T10:03:25;101679.00;;;18.20
11792;BMP180;5953;52.372;9.918;2023-04-30T10:05:54;101678.00;;;17.60
11792;BMP180;5953;52.372;9.918;2023-04-30T10:08:26;101670.00;;;18.30
11792;BMP180;5953;52.372;9.918;2023-04-30T10:10:58;101655.00;;;18.50
11792;BMP180;5953;52.372;9.918;2023-04-30T10:13:30;101660.00;;;18.80
11792;BMP180;5953;52.372;9.918;2023-04-30T10:16:07;101659.00;;;19.10
11792;BMP180;5953;52.372;9.918;2023-04-30T10:18:39;101666.00;;;19.20
11792;BMP180;5953;52.372;9.918;2023-04-30T10:21:12;101661.00;;;19.40
11792;BMP180;5953;52.372;9.918;2023-04-30T10:23:41;101651.00;;;19.40
11792;BMP180;5953;52.372;9.918;2023-04-30T10:26:09;101660.00;;;18.10
11792;BMP180;5953;52.372;9.918;2023-04-30T10:28:37;101671.00;;;18.90
11792;BMP180;5953;52.372;9.918;2023-04-30T10:31:08;101675.00;;;19.50
11792;BMP180;5953;52.372;9.918;2023-04-30T10:33:53;101673.00;;;18.80
11792;BMP180;5953;52.372;9.918;2023-04-30T10:36:28;101668.00;;;19.40
11792;BMP180;5953;52.372;9.918;2023-04-30T10:39:00;101662.00;;;19.70
11792;BMP180;5953;52.372;9.918;2023-04-30T10:41:30;101663.00;;;19.80
11792;BMP180;5953;52.372;9.918;2023-04-30T10:44:00;101657.00;;;19.50
11792;BMP180;5953;52.372;9.918;2023-04-30T10:46:33;101655.00;;;19.20
11792;BMP180;5953;52.372;9.918;2023-04-30T10:49:02;101644.00;;;19.70
11792;BMP180;5953;52.372;9.918;2023-04-30T10:51:51;101639.00;;;19.90
11792;BMP180;5953;52.372;9.918;2023-04-30T10:54:25;101629.00;;;20.00
11792;BMP180;5953;52.372;9.918;2023-04-30T10:57:08;101638.00;;;20.20
11792;BMP180;5953;52.372;9.918;2023-04-30T10:59:37;101626.00;;;20.20
11792;BMP180;5953;52.372;9.918;2023-04-30T11:02:09;101639.00;;;20.30
11792;BMP180;5953;52.372;9.918;2023-04-30T11:05:08;101635.00;;;20.40
11792;BMP180;5953;52.372;9.918;2023-04-30T11:07:36;101629.00;;;20.70
11792;BMP180;5953;52.372;9.918;2023-04-30T11:10:06;101631.00;;;20.60
11792;BMP180;5953;52.372;9.918;2023-04-30T11:12:39;101626.00;;;20.70
11792;BMP180;5953;52.372;9.918;2023-04-30T11:15:13;101630.00;;;20.40
11792;BMP180;5953;52.372;9.918;2023-04-30T11:17:43;101584.00;;;20.60
11792;BMP180;5953;52.372;9.918;2023-04-30T11:20:13;101619.00;;;20.60
11792;BMP180;5953;52.372;9.918;2023-04-30T11:22:41;101617.00;;;20.30
11792;BMP180;5953;52.372;9.918;2023-04-30T11:25:10;101619.00;;;20.30
11792;BMP180;5953;52.372;9.918;2023-04-30T11:27:41;101615.00;;;20.60
11792;BMP180;5953;52.372;9.918;2023-04-30T11:30:12;101594.00;;;20.40
11792;BMP180;5953;52.372;9.918;2023-04-30T11:32:44;101617.00;;;19.90
11792;BMP180;5953;52.372;9.918;2023-04-30T11:35:16;101616.00;;;20.10
11792;BMP180;5953;52.372;9.918;2023-04-30T11:37:47;101618.00;;;20.40
11792;BMP180;5953;52.372;9.918;2023-04-30T11:40:15;101615.00;;;20.40
11792;BMP180;5953;52.372;9.918;2023-04-30T11:42:43;101589.00;;;20.30
11792;BMP180;5953;52.372;9.918;2023-04-30T11:45:13;101605.00;;;20.60
11792;BMP180;5953;52.372;9.918;2023-04-30T11:47:45;101599.00;;;20.30
11792;BMP180;5953;52.372;9.918;2023-04-30T11:50:15;101597.00;;;20.20
11792;BMP180;5953;52.372;9.918;2023-04-30T11:52:49;101602.00;;;19.80
11792;BMP180;5953;52.372;9.918;2023-04-30T11:55:18;101598.00;;;20.30
11792;BMP180;5953;52.372;9.918;2023-04-30T11:57:47;101588.00;;;20.60
11792;BMP180;5953;52.372;9.918;2023-04-30T12:00:17;101603.00;;;20.80
11792;BMP180;5953;52.372;9.918;2023-04-30T12:02:48;101596.00;;;21.00
11792;BMP180;5953;52.372;9.918;2023-04-30T12:05:17;101594.00;;;20.80
11792;BMP180;5953;52.372;9.918;2023-04-30T12:07:50;101593.00;;;21.10
11792;BMP180;5953;52.372;9.918;2023-04-30T12:10:18;101590.00;;;21.20
11792;BMP180;5953;52.372;9.918;2023-04-30T12:12:47;101582.00;;;21.10
11792;BMP180;5953;52.372;9.918;2023-04-30T12:15:19;101587.00;;;21.30
11792;BMP180;5953;52.372;9.918;2023-04-30T12:17:49;101570.00;;;21.30
11792;BMP180;5953;52.372;9.918;2023-04-30T12:20:18;101579.00;;;21.30
11792;BMP180;5953;52.372;9.918;2023-04-30T12:22:47;101578.00;;;21.30
11792;BMP180;5953;52.372;9.918;2023-04-30T12:25:18;101578.00;;;21.20
11792;BMP180;5953;52.372;9.918;2023-04-30T12:27:47;101571.00;;;20.40
11792;BMP180;5953;52.372;9.918;2023-04-30T12:30:18;101577.00;;;20.80
11792;BMP180;5953;52.372;9.918;2023-04-30T12:32:49;101568.00;;;21.20
11792;BMP180;5953;52.372;9.918;2023-04-30T12:35:18;101573.00;;;21.60
11792;BMP180;5953;52.372;9.918;2023-04-30T12:37:47;101577.00;;;21.20
11792;BMP180;5953;52.372;9.918;2023-04-30T12:40:17;101576.00;;;21.00
11792;BMP180;5953;52.372;9.918;2023-04-30T12:42:45;101574.00;;;21.00
11792;BMP180;5953;52.372;9.918;2023-04-30T12:45:43;101577.00;;;21.50
11792;BMP180;5953;52.372;9.918;2023-04-30T12:48:13;101577.00;;;21.10
11792;BMP180;5953;52.372;9.918;2023-04-30T12:50:41;101573.00;;;21.50
11792;BMP180;5953;52.372;9.918;2023-04-30T12:53:09;101570.00;;;21.90
11792;BMP180;5953;52.372;9.918;2023-04-30T12:55:37;101563.00;;;21.70
11792;BMP180;5953;52.372;9.918;2023-04-30T12:58:06;101565.00;;;21.80
11792;BMP180;5953;52.372;9.918;2023-04-30T13:00:47;101558.00;;;21.60
11792;BMP180;5953;52.372;9.918;2023-04-30T13:03:18;101530.00;;;21.20
11792;BMP180;5953;52.372;9.918;2023-04-30T13:05:48;101542.00;;;21.60
11792;BMP180;5953;52.372;9.918;2023-04-30T13:08:17;101547.00;;;21.50
11792;BMP180;5953;52.372;9.918;2023-04-30T13:10:47;101551.00;;;21.70
11792;BMP180;5953;52.372;9.918;2023-04-30T13:13:16;101552.00;;;21.40
11792;BMP180;5953;52.372;9.918;2023-04-30T13:15:45;101535.00;;;21.40
11792;BMP180;5953;52.372;9.918;2023-04-30T13:18:14;101533.00;;;21.50
11792;BMP180;5953;52.372;9.918;2023-04-30T13:20:43;101534.00;;;21.80
11792;BMP180;5953;52.372;9.918;2023-04-30T13:23:11;101529.00;;;22.10
11792;BMP180;5953;52.372;9.918;2023-04-30T13:25:39;101528.00;;;22.30
11792;BMP180;5953;52.372;9.918;2023-04-30T13:28:08;101538.00;;;22.20
11792;BMP180;5953;52.372;9.918;2023-04-30T13:30:35;101532.00;;;22.00
11792;BMP180;5953;52.372;9.918;2023-04-30T13:33:03;101531.00;;;21.90
11792;BMP180;5953;52.372;9.918;2023-04-30T13:35:31;101523.00;;;21.90
11792;BMP180;5953;52.372;9.918;2023-04-30T13:38:00;101514.00;;;21.60
11792;BMP180;5953;52.372;9.918;2023-04-30T13:40:28;101515.00;;;21.70
11792;BMP180;5953;52.372;9.918;2023-04-30T13:42:56;101507.00;;;21.70
11792;BMP180;5953;52.372;9.918;2023-04-30T13:45:24;101509.00;;;21.80
11792;BMP180;5953;52.372;9.918;2023-04-30T13:47:52;101499.00;;;21.80
11792;BMP180;5953;52.372;9.918;2023-04-30T13:50:20;101492.00;;;21.90
11792;BMP180;5953;52.372;9.918;2023-04-30T13:52:47;101493.00;;;22.00
11792;BMP180;5953;52.372;9.918;2023-04-30T13:55:17;101498.00;;;21.90
11792;BMP180;5953;52.372;9.918;2023-04-30T13:57:44;101491.00;;;21.80
11792;BMP180;5953;52.372;9.918;2023-04-30T14:00:13;101484.00;;;21.60
11792;BMP180;5953;52.372;9.918;2023-04-30T14:02:41;101494.00;;;21.90
11792;BMP180;5953;52.372;9.918;2023-04-30T14:05:09;101486.00;;;21.70
11792;BMP180;5953;52.372;9.918;2023-04-30T14:07:37;101487.00;;;22.20
11792;BMP180;5953;52.372;9.918;2023-04-30T14:10:06;101492.00;;;22.50
11792;BMP180;5953;52.372;9.918;2023-04-30T14:12:35;101487.00;;;22.10
11792;BMP180;5953;52.372;9.918;2023-04-30T14:15:07;101478.00;;;22.20
11792;BMP180;5953;52.372;9.918;2023-04-30T14:17:44;101484.00;;;21.90
11792;BMP180;5953;52.372;9.918;2023-04-30T14:20:12;101478.00;;;22.20
11792;BMP180;5953;52.372;9.918;2023-04-30T14:22:40;101464.00;;;22.20